Terminal Aerodrome Forecast
Issued by NWS

Home | Current Version | Previous Version | Text Only | Print | Product List | Glossary On
Versions: 1 2 3 4 5 6 7 8 9 10 11
308
FTUS44 KBMX 110520
TAFEET
TAF
KEET 110520Z 1106/1206 00000KT P6SM SKC
     FM111600 14007KT P6SM SCT015 BKN150
     FM120300 15010KT P6SM OVC015=

USA.gov is the U.S. government's official web portal to all federal, state and local government web resources and services.